Strona główna
METAR-TAF:

METAR-TAF

Lotnisko :

Wings Field

Filadelfia / Blue Bell, Pensylwania, Stany Zjednoczone

Szerokość geograficzna: 40-08-15N, Długość geograficzna: 075-15-54W, wysokość: 92 m

Aktualna obserwacja pogody

Raport powstał 16 minut temu, godzina 10:55 UTC
Wiatr 3 kt od północny wschód
Temperatura 19°C
Wilgotność 94%
Ciśnienie 1013 hPa
Widzialność: 16.1 km
Rozproszone chmury na wysokości 1200 ft
Zachmurzenie całkowite na wysokości 2000 ft

METAR: KLOM 191055Z AUTO 05003KT 10SM SCT012 OVC020 19/18 A2992 RMK AO1

czas: 07:11 (11:11 UTC)


TAF: brakujący

Obserwacja i prognoza pogody dla ponad 4000 lotnisk (raport METAR i TAF).

Dostępne stacje oznaczono żółtymi i czerwonymi punktami na mapie.

Najedź kursorem aby zobaczyć nazwę stacji.

Kliknij aby zobaczyć obserwacje i prognozy pogody.

Aby zmienić mapę: kliknij na zielony przycisk z czarnym krzyżykiem, aby powiększyć; na zielony przycisk z myślnikiem, aby pomniejszyć; na zielone strzałki, aby przejść do map sąsiednich.


METAR-TAF: